Weather

Rainfall Maps have ended for the season and will begin again on June 1st.

*Note: Some stations are located near irrigated fields and may also report irrigation

Forrest Carberry Carberry North Wawanesa Glenboro Glenora Treherne Gladstone Portage East High Bluff Elm Creek Carman Winkler Kuhl Farm Morris St.Adolphe Steinbach Selkirk Macdonald Shilo Rivers Somerset Reinland Altona Starbuck St.Pierre Winkler




High Bluff - Historical Weather Data
Date Max Temp (°C) Min Temp (°C) Avg Temp (°C) Rain (mm) Avg RH (%) Solar Radiation (W/m2)
11/16/2017 -1.1 -8.8 -5.6 0.0 89.1 2159.6
11/15/2017 -2.7 -8.7 -7.2 0.0 89.4 4665.0
11/14/2017 0.5 -6.1 -3.4 0.0 93.3 5598.6
11/13/2017 -1.9 -8.3 -5.6 0.0 89.3 8300.9
11/12/2017 -3.9 -9.7 -5.8 0.0 83.8 6502.8
11/11/2017 -4.7 -10.0 -6.3 0.0 90.0 4255.1
11/10/2017 -8.1 -19.9 -13.0 0.0 85.2 2912.0
11/9/2017 -11.7 -21.7 -17.0 0.0 79.4 9691.2
11/8/2017 -8.1 -18.0 -10.9 0.0 84.7 5389.2
11/7/2017 -4.5 -16.0 -9.6 0.0 75.8 8267.4
11/6/2017 -6.3 -13.3 -10.2 0.0 77.4 9730.8
11/5/2017 -4.2 -10.5 -7.0 0.0 78.5 8575.2
11/4/2017 -1.7 -5.3 -3.3 0.0 93.0 2895.4
11/3/2017 -2.3 -11.2 -5.8 0.0 83.6 6919.0
11/2/2017 -1.7 -7.6 -3.2 0.0 85.4 4401.7
11/1/2017 0.2 -5.3 -2.5 0.0 86.3 4046.8
10/31/2017 -2.5 -9.9 -5.5 0.0 82.7 7603.1
10/30/2017 1.0 -5.4 -2.3 0.0 83.1 4770.4
10/29/2017 6.0 -1.6 2.4 0.6 83.0 4298.1
10/28/2017 2.7 -5.7 -1.3 0.0 90.8 5223.2
10/27/2017 1.4 -3.9 -1.8 0.0 83.0 8888.5
10/26/2017 5.3 -2.3 -0.2 6.8 86.1 3557.8
10/25/2017 8.9 3.3 6.9 0.0 72.9 5180.4
10/24/2017 8.8 -1.8 3.4 0.0 75.6 6120.9
10/23/2017 7.9 -0.1 4.9 0.0 75.4 6358.7
10/22/2017 15.4 5.4 9.4 0.0 60.6 9659.3
10/21/2017 17.3 8.7 14.0 0.0 68.8 9037.9
10/20/2017 24.0 4.4 13.9 0.0 62.3 10842.2
10/19/2017 18.7 -0.9 9.5 0.0 42.3 10189.3
10/18/2017 18.0 8.9 12.8 0.0 30.2 12655.3
10/17/2017 22.6 1.9 11.4 0.0 54.9 11731.7
10/16/2017 19.3 0.9 9.7 0.0 56.6 11963.5
10/15/2017 13.0 -3.7 4.4 0.0 67.4 11783.5
10/14/2017 7.4 -4.1 1.9 0.2 79.0 9846.6
10/13/2017 9.3 0.4 3.9 0.0 62.2 14135.7
10/12/2017 16.5 3.6 8.7 0.0 66.0 9703.1
10/11/2017 14.3 3.3 8.7 0.0 51.4 13096.3
10/10/2017 19.3 -3.3 7.2 0.0 55.8 14475.1
10/9/2017 7.7 -1.4 4.0 0.0 59.7 10590.7
10/8/2017 13.8 5.5 9.3 0.0 55.1 12333.7
10/7/2017 18.7 7.1 13.0 0.2 61.0 13085.0
10/6/2017 19.3 2.0 10.3 0.0 62.7 15256.6
10/5/2017 12.9 0.1 6.6 0.0 72.4 15268.3
10/4/2017 15.0 5.4 9.3 0.0 67.0 15643.8
10/3/2017 14.2 1.3 7.8 0.0 73.1 10881.5
10/2/2017 16.2 4.5 12.8 0.0 79.4 11220.5
10/1/2017 17.0 12.7 14.5 0.0 84.1 4271.5
9/30/2017 20.7 5.1 12.9 0.0 73.6 12679.1
9/29/2017 16.5 1.1 8.9 0.0 79.1 16736.1
9/28/2017 15.4 4.6 11.1 0.0 79.8 17205.2
9/27/2017 20.0 4.1 11.1 0.0 85.6 15308.3
9/26/2017 9.9 3.7 7.4 4.4 95.4 3631.2
9/25/2017 12.2 4.4 9.3 0.0 82.4 8677.9
9/24/2017 10.8 8.9 9.8 8.4 95.8 2458.5
9/23/2017 13.3 9.1 11.1 0.0 89.4 8720.3
9/22/2017 15.5 8.9 11.5 17.0 88.0 7271.8
9/21/2017 20.5 8.6 13.4 0.0 75.6 8031.7
9/20/2017 20.8 10.8 15.1 0.8 68.7 17424.8
9/19/2017 19.1 9.6 14.6 19.2 94.3 2340.4
9/18/2017 21.1 3.1 11.9 0.0 78.1 17733.6
9/17/2017 14.4 5.8 9.3 1.8 82.0 13127.4
9/16/2017 9.5 7.4 8.3 6.6 96.9 3988.0
9/15/2017 12.6 7.9 10.1 11.2 82.4 3647.5
9/14/2017 16.4 11.0 12.5 0.0 78.0 7085.3
9/13/2017 21.3 10.8 15.9 0.6 67.3 10892.6
9/12/2017 33.9 15.0 22.4 0.0 47.8 17965.1
9/11/2017 27.9 12.8 19.8 0.0 39.4 19586.3
9/10/2017 31.0 15.3 22.6 0.0 64.1 18005.7
9/9/2017 27.0 8.2 17.5 0.0 62.5 19850.5
9/8/2017 22.3 6.2 14.4 0.0 64.4 21260.3
9/7/2017 23.0 11.2 17.4 0.0 58.5 20444.8
9/6/2017 21.1 2.8 12.4 0.0 71.5 17287.4
9/5/2017 19.2 5.1 13.3 0.0 65.1 21544.0
9/4/2017 19.8 10.8 15.7 0.0 59.6 16698.4
9/3/2017 24.1 10.6 17.0 0.0 70.7 12885.9
9/2/2017 26.5 10.3 18.3 0.0 60.9 21560.8
9/1/2017 26.7 13.2 18.7 1.6 81.0 11162.3
8/31/2017 25.5 9.9 18.0 0.0 65.0 18838.7
8/30/2017 24.2 4.8 15.8 0.0 65.0 22276.1
8/29/2017 28.7 11.9 20.7 0.0 67.7 21696.5
8/28/2017 31.9 9.7 20.8 0.0 66.2 21854.3
8/27/2017 28.8 11.3 19.2 0.0 73.6 22234.8
8/26/2017 21.2 13.9 17.7 0.0 91.4 7532.1
8/25/2017 25.5 10.6 17.6 0.0 76.5 22133.5
8/24/2017 21.9 3.2 12.9 0.0 75.5 22343.8
8/23/2017 17.2 7.2 12.5 3.2 92.8 10021.3
8/22/2017 22.7 8.9 15.8 0.0 70.7 24217.9
8/21/2017 20.1 12.4 15.4 2.4 82.2 9386.1
8/20/2017 25.0 11.5 18.8 0.0 57.1 25266.1
8/19/2017 29.9 12.5 21.5 0.0 69.6 21849.2
8/18/2017 27.6 12.1 19.6 0.0 71.8 24407.2
8/17/2017 26.3 9.6 18.1 0.0 78.4 23475.8
8/16/2017 24.9 14.0 19.1 2.0 86.8 19388.3
8/15/2017 24.6 12.0 18.4 0.8 88.1 11664.7
8/14/2017 26.9 10.0 19.0 0.0 77.4 23021.0
8/13/2017 27.3 8.8 18.7 0.0 74.3 25719.0
8/12/2017 26.5 8.8 18.2 0.0 77.5 23746.9
8/11/2017 26.2 8.2 17.8 0.0 75.2 26141.8
8/10/2017 24.4 10.2 17.7 0.0 74.8 26625.6
8/9/2017 19.8 14.2 17.0 8.8 88.6 11005.8
8/8/2017 22.8 13.7 18.3 0.0 85.1 15896.7
8/7/2017 27.1 10.2 19.2 0.0 71.1 25261.0
8/6/2017 24.6 5.8 16.6 0.0 71.7 27457.8
8/5/2017 24.2 7.8 16.7 0.0 76.4 27349.5
8/4/2017 25.2 7.8 16.9 0.0 78.7 27656.2
8/3/2017 24.9 5.6 15.9 0.0 75.1 28222.8
8/2/2017 19.1 10.2 15.2 0.0 85.2 9313.5
8/1/2017 23.9 13.8 19.7 0.0 76.7 26297.7
7/31/2017 29.5 16.9 23.6 0.0 79.7 24981.6
7/30/2017 30.2 13.4 22.7 0.0 85.5 25713.2
7/29/2017 27.6 16.4 21.8 0.0 84.5 14079.3
7/28/2017 28.5 14.2 22.2 0.0 79.5 27799.7
7/27/2017 28.7 12.7 21.1 0.0 80.6 27432.6
7/26/2017 26.2 15.0 20.7 0.0 78.8 27956.0
7/25/2017 23.5 17.0 20.3 11.0 78.9 24659.6
7/24/2017 26.9 15.2 21.5 0.0 84.0 25331.7
7/23/2017 25.5 11.2 19.2 0.0 81.6 28030.5
7/22/2017 19.7 13.7 17.2 3.4 94.1 10020.8
7/21/2017 23.6 15.5 19.4 0.4 84.9 17868.4
7/20/2017 25.4 8.8 18.1 0.0 81.1 24138.3
7/19/2017 25.3 9.1 17.7 0.0 81.5 21047.1
7/18/2017 23.1 10.9 17.6 0.0 68.5 28235.0
7/17/2017 24.6 14.3 21.9 0.0 68.4 24516.2
7/16/2017 25.4 11.4 19.4 0.0 78.1 27488.8
7/15/2017 23.1 13.3 20.1 0.0 79.2 30015.3
7/14/2017 29.7 11.2 20.2 0.0 78.2 25982.5
7/13/2017 23.6 8.7 17.1 0.0 78.0 29754.4
7/12/2017 21.3 11.6 16.4 2.2 89.8 16332.5
7/11/2017 21.8 14.8 18.2 6.2 92.7 9170.7
7/10/2017 27.0 12.1 20.6 0.0 78.3 25876.6
7/9/2017 25.1 14.7 20.3 0.0 75.9 28898.8
7/8/2017 26.2 14.5 20.8 0.0 73.3 30038.9
7/7/2017 23.7 12.0 18.5 7.6 78.2 30435.7
7/6/2017 23.9 15.3 20.7 0.0 72.7 30893.0
7/5/2017 28.0 12.8 22.1 0.0 66.6 29026.2
7/4/2017 28.0 16.7 21.5 1.4 81.1 25144.7
7/3/2017 26.1 13.8 20.2 0.0 73.8 25993.7
7/2/2017 21.3 9.6 15.9 0.0 81.9 20083.3
7/1/2017 19.4 11.4 15.9 2.4 78.4 29198.4
6/30/2017 19.4 12.4 16.0 0.0 80.5 24376.5
6/29/2017 23.7 11.4 17.0 0.8 87.9 18569.5
6/28/2017 22.9 13.9 19.0 0.6 73.7 19365.8
6/27/2017 27.3 10.7 19.4 0.0 55.6 28143.4
6/26/2017 22.0 8.2 15.9 0.0 62.2 29601.8
6/25/2017 17.2 4.7 11.8 1.8 78.0 29044.9
6/24/2017 13.8 6.6 10.4 5.4 85.9 11936.7
6/23/2017 15.0 10.0 13.0 0.6 78.3 11409.6
6/22/2017 19.4 11.4 15.5 1.4 65.1 20966.1
6/21/2017 21.3 12.0 15.7 10.6 82.4 9950.6
6/20/2017 22.0 8.9 15.3 0.0 78.1 25966.7
6/19/2017 19.1 8.0 13.9 2.6 78.2 27168.0
6/18/2017 15.6 11.7 13.4 0.6 87.6 8787.5
6/17/2017 16.4 10.9 13.7 1.0 87.3 15114.5
6/16/2017 16.8 11.8 14.3 0.0 84.3 15317.0
6/15/2017 19.0 13.6 15.9 0.0 77.6 12926.8
6/14/2017 21.4 14.0 17.1 24.0 86.1 15729.8
6/13/2017 24.0 11.3 17.3 5.6 57.2 11022.4
6/12/2017 21.5 11.5 17.0 0.0 52.5 30640.1
6/11/2017 26.1 10.3 18.4 0.0 63.1 23531.1
6/10/2017 25.2 14.6 19.1 1.0 76.1 22855.0
6/9/2017 27.7 11.6 19.5 4.8 65.7 14952.2
6/8/2017 27.0 12.0 20.7 0.0 58.4 30521.5
6/7/2017 22.5 13.7 17.8 0.0 78.1 20777.8
6/6/2017 26.3 16.7 21.9 0.0 60.7 24846.3
6/5/2017 29.8 12.5 22.0 0.0 62.5 28860.6
6/4/2017 22.8 12.2 18.2 0.0 77.6 26407.3
6/3/2017 27.0 16.8 21.9 0.0 57.4 28019.5
6/2/2017 35.6 16.4 24.3 3.0 47.7 22767.9
6/1/2017 29.9 10.0 21.5 0.0 36.9 30731.9
5/31/2017 23.9 5.8 16.2 0.0 50.1 30998.6
5/30/2017 19.0 7.6 12.5 0.0 67.8 26290.8
5/29/2017 10.0 7.6 8.6 9.0 93.8 4655.7
5/28/2017 13.4 10.0 11.3 2.8 87.2 9664.9
5/27/2017 20.5 9.4 15.3 0.0 59.7 21077.3
5/26/2017 20.3 9.7 15.1 0.0 64.2 21990.3
5/25/2017 19.1 -16.8 13.5 6.4 62.7 5604.5
5/24/2017 21.5 6.5 15.5 0.0 47.1 30003.2
5/23/2017 20.3 6.6 13.9 0.0 54.4 29043.7
5/22/2017 13.3 9.0 11.3 0.0 68.0 8638.4
5/21/2017 12.1 6.7 9.5 1.8 75.1 10322.9
5/20/2017 18.3 6.4 12.9 0.0 39.1 20054.6
5/19/2017 18.3 -0.9 10.3 0.0 48.7 27109.8
5/18/2017 12.4 1.2 6.9 0.0 50.2 31149.1
5/17/2017 10.9 4.8 7.4 0.0 74.9 17777.9
5/16/2017 17.5 9.8 14.6 0.0 58.9 11185.1
5/15/2017 23.9 5.4 16.3 0.0 43.6 18925.1
5/14/2017 22.8 10.3 16.0 0.0 45.3 17757.4
5/13/2017 19.7 5.2 12.1 0.0 50.6 27846.9
5/12/2017 13.6 0.2 7.3 0.0 63.4 29486.3
5/11/2017 14.8 0.5 8.1 0.0 65.2 29226.1
5/10/2017 11.3 4.0 6.9 0.0 66.9 21826.1
5/9/2017 14.8 5.7 10.0 0.0 73.1 20368.1
5/8/2017 13.0 6.5 10.2 18.6 73.5 4891.6
5/7/2017 20.1 8.4 14.1 0.0 35.8 26431.2
5/6/2017 15.5 7.5 11.5 0.0 54.4 10443.5
5/5/2017 23.2 9.9 17.1 0.0 39.4 28444.7
5/4/2017 20.6 4.3 14.0 0.0 49.6 24979.9
5/3/2017 17.4 5.6 11.9 0.0 55.4 28020.7
5/2/2017 18.4 2.3 11.9 0.0 54.0 21619.4
5/1/2017 18.5 1.6 11.0 0.0 41.6 22369.9
4/30/2017 20.3 4.4 12.9 0.0 37.9 26395.4
4/29/2017 18.6 -3.5 8.4 0.0 46.8 26193.8
4/28/2017 10.2 -2.4 4.1 0.0 50.2 28559.0
4/27/2017 8.0 -3.4 2.6 0.0 58.1 24566.3
4/26/2017 5.8 -1.6 1.9 0.0 61.2 24352.8
4/25/2017 5.9 -1.3 1.8 0.0 66.1 24578.1
4/24/2017 1.8 -0.9 0.1 0.2 71.7 5711.0
4/23/2017 4.4 -2.8 0.4 0.0 58.3 22847.4
4/22/2017 8.4 -1.6 1.3 4.0 85.5 15693.8
4/21/2017 16.7 -0.4 8.5 0.0 74.4 25178.4
4/20/2017 10.6 3.0 7.0 0.0 83.4 13434.0
4/19/2017 11.8 -1.8 5.3 0.0 75.8 21975.1
4/18/2017 6.4 -0.5 2.5 0.0 80.3 20683.6
4/17/2017 1.9 -5.4 -2.4 0.0 83.2 11723.6
4/16/2017 6.3 -4.3 1.7 4.4 89.8 7574.6
4/15/2017 16.6 5.5 10.1 12.4 70.7 19808.5
4/14/2017 18.7 7.2 11.9 12.2 81.2 7837.8
4/13/2017 17.0 0.9 9.4 0.0 52.6 22616.2
4/12/2017 13.5 -0.6 7.0 0.0 69.8 20648.2
4/11/2017 9.8 -3.4 3.1 0.0 67.3 22031.4
4/10/2017 4.4 -6.0 -1.6 0.0 66.9 24002.1
4/9/2017 10.9 -3.7 0.1 0.0 77.0 17424.0
4/8/2017 17.3 4.8 10.7 0.0 73.8 12090.3
4/7/2017 14.2 1.8 7.8 0.0 74.7 19825.8
4/6/2017 10.4 -2.3 4.1 0.0 76.0 23038.0
4/5/2017 6.4 -1.3 2.0 0.0 75.9 23313.8
4/4/2017 6.0 0.4 2.9 0.0 81.8 22742.8
4/3/2017 12.7 1.7 6.8 0.0 75.5 22486.8
4/2/2017 11.7 4.8 7.7 0.0 81.9 15759.0
4/1/2017 8.3 1.0 4.7 0.0 86.5 13948.8
3/31/2017 3.7 1.5 2.4 0.0 98.7 4206.1
3/30/2017 10.1 1.5 6.4 0.0 86.0 14310.6
3/29/2017 8.2 0.3 3.9 9.0 91.4 6226.4
3/28/2017 2.7 -2.6 0.3 0.0 83.1 8256.4
3/27/2017 6.4 -0.1 2.2 0.0 81.3 15985.2
3/26/2017 5.5 0.0 2.2 0.0 91.7 19902.9
3/25/2017 1.9 -1.7 0.2 0.0 90.1 10453.7
3/24/2017 -0.1 -2.8 -1.1 0.0 84.2 7078.2
3/23/2017 4.7 -2.4 0.6 0.0 84.6 14119.7
3/22/2017 -1.9 -10.6 -5.9 0.0 75.8 7344.0
3/21/2017 -9.1 -12.9 -11.0 0.0 66.2 20548.2
3/20/2017 4.2 -8.8 -0.8 0.0 70.4 17687.0
3/19/2017 7.5 -2.7 2.5 0.0 82.3 14976.6
3/18/2017 -2.8 -13.1 -8.2 0.0 89.8 14246.1
3/17/2017 1.2 -9.9 -3.0 5.0 93.7 6583.5
3/16/2017 0.4 -3.7 -1.4 0.2 94.0 6187.5
3/15/2017 -1.3 -10.1 -5.5 0.0 84.8 14662.5
3/14/2017 -4.0 -17.4 -11.2 0.0 76.0 18582.7
3/13/2017 -10.5 -21.1 -15.6 0.0 73.2 18151.0
3/12/2017 -11.3 -17.1 -14.9 0.0 69.0 14354.4
3/11/2017 -15.3 -21.0 -18.3 0.0 66.4 17021.8
3/10/2017 -18.2 -24.9 -21.2 0.0 65.7 17510.1
3/9/2017 -16.0 -22.2 -19.7 0.0 65.6 17509.8
3/8/2017 -9.1 -15.8 -12.8 0.0 73.3 16156.6
3/7/2017 -10.7 -13.2 -12.5 0.0 87.8 8998.4
3/6/2017 3.0 -11.3 -0.6 8.4 96.3 2366.1
3/5/2017 2.7 -5.3 -0.7 0.0 92.0 14620.0
3/4/2017 2.1 -6.2 -2.0 0.0 86.7 13454.5
3/3/2017 -5.0 -21.1 -13.0 0.0 80.4 15138.7
3/2/2017 -14.5 -21.1 -18.0 0.0 67.1 15642.8
3/1/2017 -8.1 -15.9 -11.8 0.0 77.0 15012.1
2/28/2017 -9.4 -21.5 -15.0 0.0 75.6 15094.2
2/27/2017 -10.4 -19.2 -12.8 0.0 83.6 11544.3
2/26/2017 -5.8 -20.4 -12.2 0.0 77.8 13324.8
2/25/2017 -8.4 -14.8 -10.8 0.0 87.5 9858.7
2/24/2017 -8.4 -13.1 -10.7 0.0 81.6 14344.9
2/23/2017 -3.5 -9.2 -6.3 0.0 79.5 8823.6
2/22/2017 1.5 -3.3 -0.5 0.0 87.2 7114.3
2/21/2017 3.2 -1.2 0.7 0.2 95.3 8141.1
2/20/2017 2.9 -0.2 1.0 6.6 95.2 3745.7
2/19/2017 3.1 -3.2 0.2 0.0 88.3 6617.6
2/18/2017 4.5 -3.4 2.1 0.0 84.8 12338.4
2/17/2017 7.2 -4.8 1.6 0.0 82.7 9060.8
2/16/2017 5.1 -6.7 -2.2 0.0 90.0 10279.6
2/15/2017 -5.2 -12.5 -8.6 0.0 84.2 11832.3
2/14/2017 -0.1 -14.1 -6.2 0.0 75.6 12034.6
2/13/2017 3.2 -2.9 0.2 0.0 73.2 9666.9
2/12/2017 0.9 -7.9 -3.8 0.0 69.4 11212.9
2/11/2017 -6.1 -18.1 -10.8 0.0 89.1 7665.8
2/10/2017 -7.2 -16.6 -10.1 0.0 89.0 6617.1
2/9/2017 -11.7 -21.3 -17.3 0.0 75.2 10452.5
2/8/2017 -18.7 -25.4 -21.9 0.0 74.8 10079.4
2/7/2017 -18.7 -23.8 -20.5 0.0 78.6 10560.1
2/6/2017 -14.9 -18.8 -16.3 0.0 80.8 6779.2
2/5/2017 -14.7 -20.4 -16.4 0.0 81.5 5056.3
2/4/2017 -11.7 -17.9 -14.9 0.0 84.1 7049.8
2/3/2017 -8.6 -17.3 -14.0 0.0 76.4 9922.6
2/2/2017 -13.0 -21.2 -17.3 0.0 68.6 10087.7
2/1/2017 -14.3 -21.4 -18.0 0.0 72.3 8398.5
1/31/2017 -1.6 -19.4 -9.1 0.0 88.1 4956.9
1/30/2017 -0.5 -6.9 -4.0 0.0 96.8 4265.0
1/29/2017 -4.6 -14.4 -10.1 0.0 89.9 7315.6
1/28/2017 -3.2 -5.3 -4.4 0.0 95.1 2835.9
1/27/2017 -1.7 -8.7 -5.6 0.0 82.0 8642.4
1/26/2017 -4.8 -10.8 -8.0 0.0 83.1 7287.7
1/25/2017 -6.8 -10.5 -8.2 0.0 89.8 5525.8
1/24/2017 -3.2 -6.7 -4.7 0.0 91.8 4461.2
1/23/2017 -0.4 -3.2 -2.0 0.0 88.9 2369.9
1/22/2017 0.8 -0.5 0.3 0.4 98.0 3232.0
1/21/2017 1.1 0.5 0.8 0.6 100.0 2041.3
1/20/2017 1.2 -6.6 -1.3 2.6 97.6 2923.4
1/19/2017 -1.1 -6.5 -3.7 0.0 86.3 7086.3
1/18/2017 1.9 -8.9 -2.3 0.0 86.2 6616.8
1/17/2017 0.8 -16.5 -7.1 0.0 81.7 6118.3
1/16/2017 -4.5 -14.2 -10.1 0.0 80.7 6047.2
1/15/2017 -3.4 -17.0 -8.8 0.0 69.9 7089.8
1/14/2017 -9.4 -23.4 -16.2 0.0 78.5 6487.0
1/13/2017 -16.7 -34.4 -25.9 0.0 76.4 5501.8
1/12/2017 -14.2 -31.8 -23.1 0.0 77.4 6557.2
1/11/2017 -17.1 -28.3 -24.3 0.0 75.3 7182.4
1/10/2017 -16.5 -21.8 -19.2 0.0 82.1 5117.1
1/9/2017 -16.4 -25.8 -20.6 0.0 85.4 3660.1
1/8/2017 -14.1 -24.7 -19.8 0.0 81.1 4813.0
1/7/2017 -16.8 -23.9 -19.7 0.0 74.6 6715.7
1/6/2017 -15.0 -21.2 -17.7 0.0 78.3 5763.5
1/5/2017 -19.6 -26.3 -23.3 0.0 79.1 6011.4
1/4/2017 -21.7 -31.6 -27.1 0.0 80.1 5237.0
1/3/2017 -18.4 -26.0 -21.1 0.0 83.8 4079.2
1/2/2017 -14.7 -20.6 -16.7 0.0 83.3 3248.5
1/1/2017 -9.2 -18.8 -12.0 0.0 85.3 2730.5
12/31/2016 -6.1 -19.0 -10.0 0.0 85.1 4337.0
12/30/2016 -12.4 -22.1 -15.6 0.0 88.4 2789.1
12/29/2016 -3.2 -21.7 -10.0 0.0 80.6 5064.4
12/28/2016 -2.5 -12.7 -6.3 0.0 80.2 4941.6
12/27/2016 -12.3 -25.1 -17.2 0.0 83.1 6021.1
12/26/2016 -9.4 -17.9 -13.4 0.0 88.8 3346.7
12/25/2016 -9.0 -16.2 -12.6 0.0 86.9 1534.2
12/24/2016 -15.2 -19.6 -17.9 0.0 80.2 4513.8
12/23/2016 -5.1 -15.1 -9.0 0.0 83.8 5214.5
12/22/2016 0.0 -5.2 -2.3 0.0 70.0 5588.1
12/21/2016 -3.1 -15.4 -7.4 0.0 80.1 5981.5
12/20/2016 -0.1 -14.7 -4.6 0.0 83.9 5874.1
12/19/2016 -0.5 -15.0 -3.8 0.0 87.1 3425.6
12/18/2016 -15.3 -30.6 -24.9 0.0 74.5 5951.7
12/17/2016 -26.5 -29.8 -27.8 0.0 74.7 6209.6
12/16/2016 -19.0 -27.2 -22.3 0.0 77.5 5459.3
12/15/2016 -17.2 -26.8 -21.4 0.0 74.4 5959.7
12/14/2016 -19.9 -22.7 -21.7 0.0 71.0 6283.1
12/13/2016 -14.6 -21.7 -18.6 0.0 72.8 5003.7
12/12/2016 -18.0 -22.3 -20.1 0.0 74.2 6153.7
12/11/2016 -19.6 -28.9 -24.5 0.0 83.5 5956.9
12/10/2016 -22.0 -28.9 -25.8 0.2 82.0 6381.6
12/9/2016 -16.3 -23.9 -19.2 0.0 80.3 4359.5
12/8/2016 -8.7 -16.1 -12.0 0.0 88.3 3734.7
12/7/2016 -4.7 -8.7 -6.5 0.0 95.2 3059.6
12/6/2016 -1.5 -7.0 -3.6 1.2 97.2 2126.5
12/5/2016 -1.1 -2.5 -1.7 0.0 92.0 1569.0
12/4/2016 1.1 -2.5 -0.8 0.0 98.5 2746.2
12/3/2016 -2.0 -3.2 -2.6 0.0 92.5 2824.7
12/2/2016 -2.2 -4.6 -3.3 0.0 90.7 3839.6
12/1/2016 -1.3 -3.3 -2.1 0.0 91.2 2978.7
11/30/2016 -0.4 -1.6 -0.9 0.0 95.4 2092.4
11/29/2016 2.5 -0.7 0.3 4.2 99.8 1922.0
11/28/2016 3.2 -0.5 0.9 3.6 99.6 1486.7
11/27/2016 -0.5 -4.2 -2.3 0.0 99.9 1078.0
11/26/2016 6.0 -4.1 -0.3 0.2 92.9 7038.9
11/25/2016 3.0 -0.7 1.0 0.0 93.1 1722.8
11/24/2016 2.3 0.3 0.9 0.2 99.2 1763.2
11/23/2016 1.1 0.1 0.5 0.4 97.4 694.2
11/22/2016 0.6 -0.3 0.2 0.0 94.5 756.7
11/21/2016 1.1 -6.3 -2.4 0.0 76.7 4495.7
11/20/2016 -1.1 -4.9 -3.1 0.0 75.1 3467.2
11/19/2016 -2.8 -9.7 -5.7 0.0 72.8 7598.3
11/18/2016 0.4 -3.8 -1.3 0.0 70.7 3352.5
11/17/2016 4.5 -1.5 1.3 0.0 77.7 1671.2
11/16/2016 9.3 1.2 5.0 0.2 78.3 2972.1
11/15/2016 10.0 2.0 6.7 0.2 70.4 8227.0
11/14/2016 11.6 -1.0 5.6 1.0 85.7 4917.7
11/13/2016 12.7 2.0 7.6 0.0 78.7 5976.5
11/12/2016 13.8 2.2 7.0 0.0 68.8 8405.4
11/11/2016 8.3 -4.4 1.9 0.0 80.5 8668.9
11/10/2016 14.0 -1.2 9.1 0.0 66.8 8967.6
11/9/2016 20.5 2.6 11.7 0.0 66.0 8586.5
11/8/2016 13.4 -1.2 6.4 0.0 74.4 7830.2
11/7/2016 13.0 4.5 9.3 0.0 77.5 9033.1
11/6/2016 18.4 4.7 11.2 0.0 81.4 8954.9
11/5/2016 17.8 1.1 9.1 0.0 84.1 9648.7
11/4/2016 16.8 0.1 7.4 0.0 86.2 9114.9
11/3/2016 5.7 1.5 3.3 0.0 96.1 3582.6
11/2/2016 7.5 1.9 3.3 0.0 88.6 2142.6
11/1/2016 8.5 1.8 4.8 1.6 93.0 5617.6
10/31/2016 5.5 3.9 4.8 19.6 99.8 568.2
10/30/2016 8.6 0.1 4.7 0.2 85.7 8043.3
10/29/2016 5.2 -0.1 3.3 0.0 94.4 3891.7
10/28/2016 10.0 4.6 8.1 0.0 98.8 1485.3
10/27/2016 9.7 1.1 6.2 0.0 91.1 6769.2
10/26/2016 8.5 3.5 5.7 4.6 93.2 1443.9
10/25/2016 10.4 1.2 5.6 0.0 81.1 8369.3
10/24/2016 10.0 -1.1 4.5 0.0 91.4 10189.4
10/23/2016 8.9 1.4 5.8 9.8 89.7 10674.7
10/22/2016 12.6 -1.9 5.9 6.4 86.2 9517.0
10/21/2016 15.0 0.5 4.9 0.0 88.2 5659.1
10/20/2016 5.7 1.4 3.4 0.0 81.3 3425.0
10/19/2016 6.2 -0.2 2.8 0.0 78.0 8575.7
10/18/2016 5.4 3.8 4.7 0.0 79.6 2775.1
10/17/2016 12.9 4.3 8.7 0.0 84.3 10857.9
10/16/2016 8.9 -1.9 4.2 11.8 87.8 3226.1
10/15/2016 13.6 -0.3 8.7 0.0 70.1 13406.0
10/14/2016 12.5 1.1 7.5 0.0 78.0 5607.5
10/13/2016 7.0 -2.3 1.9 0.0 77.5 12370.0
10/12/2016 3.7 -1.6 1.1 0.0 78.9 4557.1
10/11/2016 5.3 2.0 3.2 1.6 88.0 5842.0
10/10/2016 12.0 2.9 6.1 0.0 80.6 6982.3
10/9/2016 11.2 -0.8 5.5 0.2 84.7 6500.4
10/8/2016 6.7 -0.1 3.2 3.4 93.3 7684.7
10/7/2016 3.9 0.6 2.7 2.6 92.4 4327.5
10/6/2016 5.7 1.8 3.9 0.0 74.3 6961.8
10/5/2016 14.4 4.9 9.4 0.8 86.9 4542.4
10/4/2016 17.2 14.2 15.5 3.8 89.5 1781.5
10/3/2016 24.4 14.1 18.2 0.0 74.3 6846.0
10/2/2016 23.8 10.7 17.2 0.0 75.7 12688.3
10/1/2016 21.7 12.0 15.7 0.2 76.2 11239.4
9/30/2016 19.2 7.4 13.3 0.0 78.9 9569.4
9/29/2016 19.4 4.6 11.8 0.0 80.4 16502.2
9/28/2016 17.7 1.3 9.4 0.0 84.0 16997.0
9/27/2016 14.0 5.2 9.1 0.0 83.1 13284.5
9/26/2016 14.4 6.1 10.4 0.0 74.6 15020.1
9/25/2016 19.2 9.6 13.0 7.6 92.2 2683.0
9/24/2016 19.9 12.9 16.0 4.8 94.3 2640.7
9/23/2016 18.9 6.8 13.3 0.0 63.5 10814.4
9/22/2016 18.7 4.6 11.8 0.0 74.4 15408.0
9/21/2016 15.6 9.1 12.3 0.0 71.9 6471.3
9/20/2016 22.3 5.7 14.1 0.0 61.2 19128.1
9/19/2016 21.3 11.6 15.8 0.0 56.3 18896.6
9/18/2016 25.9 12.5 17.0 0.2 71.7 9567.2
9/17/2016 21.2 5.5 13.3 0.0 67.8 19997.6
9/16/2016 17.7 8.4 14.3 11.0 87.6 9211.9
9/15/2016 23.1 7.5 15.2 0.0 77.5 12875.4
9/14/2016 20.9 2.5 12.2 0.0 60.3 20408.9
9/13/2016 13.3 3.3 8.4 0.4 67.8 15244.1
9/12/2016 13.9 7.5 11.3 0.6 83.6 10400.7
9/11/2016 23.6 10.7 16.9 0.2 73.0 13937.1
9/10/2016 20.7 7.5 14.0 0.2 75.3 17870.0
9/9/2016 18.9 8.8 13.4 3.8 82.5 19060.3
9/8/2016 22.3 11.0 15.5 0.4 78.4 18493.2
9/7/2016 20.8 6.9 14.0 2.2 83.6 11970.3
9/6/2016 18.0 10.2 14.3 0.2 82.8 13206.1
9/5/2016 19.2 12.6 15.8 0.0 82.9 13224.2
9/4/2016 18.2 11.6 15.4 3.8 91.6 4602.7
9/3/2016 27.5 17.3 21.5 1.2 76.0 16038.3
9/2/2016 26.7 15.9 21.0 0.0 70.3 16669.3
9/1/2016 26.5 12.2 19.0 0.0 72.7 19779.0
8/31/2016 22.2 8.0 15.6 0.0 77.4 22306.9
8/30/2016 23.1 8.9 15.6 0.0 72.1 22932.0
8/29/2016 22.0 9.5 17.4 0.0 76.8 23752.0
8/28/2016 28.8 11.5 20.2 0.2 80.9 21079.7
8/27/2016 23.9 11.3 16.8 0.0 80.4 21389.7
8/26/2016 24.8 8.2 16.3 1.0 76.1 20496.2
8/25/2016 19.9 9.9 15.6 15.6 82.1 17950.0
8/24/2016 21.8 11.0 17.0 0.0 81.0 21320.1
8/23/2016 24.5 17.5 20.6 0.0 89.8 8666.7
8/22/2016 31.4 13.9 22.2 0.0 72.1 24367.3
8/21/2016 22.2 7.6 15.9 0.0 76.2 15355.3
8/20/2016 19.0 8.9 14.6 2.8 85.2 17981.3
8/19/2016 19.8 12.1 16.0 1.2 83.4 17654.6
8/18/2016 25.1 15.4 20.9 0.0 74.3 22012.3
8/17/2016 30.2 12.7 21.8 9.2 77.7 25211.3
8/16/2016 26.4 13.1 19.7 0.0 84.3 25236.2
8/15/2016 26.8 15.9 19.8 18.6 84.0 13852.4
8/14/2016 27.0 10.7 19.7 0.0 77.2 25103.3
8/13/2016 22.9 13.8 18.2 0.0 82.7 24974.5
8/12/2016 22.1 15.2 18.3 1.2 87.7 17538.6
8/11/2016 26.9 15.1 21.3 0.0 82.8 23552.8
8/10/2016 26.5 9.1 18.2 0.0 72.8 23934.9
8/9/2016 21.3 14.9 18.4 0.0 75.1 23890.9
8/8/2016 27.2 17.1 22.2 2.4 77.9 19219.0
8/7/2016 25.9 10.2 19.0 0.0 78.6 23766.6
8/6/2016 23.4 10.8 17.6 0.0 79.5 28441.1
8/5/2016 21.8 13.2 17.4 0.0 82.3 22642.8
8/4/2016 20.0 14.2 17.2 3.6 86.8 13158.6
8/3/2016 29.4 12.5 21.1 22.6 78.7 18843.5
8/2/2016 26.9 14.8 21.1 0.0 70.9 28357.8
8/1/2016 25.3 17.6 22.3 2.2 86.8 20290.9
7/31/2016 28.3 17.2 22.9 0.0 79.8 24346.3
7/30/2016 27.6 14.5 20.5 5.6 82.5 23566.1
7/29/2016 26.7 12.1 19.9 0.0 74.8 27947.4
7/28/2016 24.6 9.5 17.6 0.0 75.6 29693.3
7/27/2016 22.0 11.2 17.4 0.0 78.4 21333.2
7/26/2016 25.9 15.7 20.8 0.0 74.9 25797.3
7/25/2016 29.2 15.5 22.1 0.0 75.1 29319.6
7/24/2016 24.3 15.9 20.1 0.0 81.4 28112.9
7/23/2016 25.4 18.0 20.4 0.8 86.7 13988.1
7/22/2016 27.3 16.7 22.4 0.0 72.9 29777.3
7/21/2016 28.3 17.7 23.2 0.0 74.8 30114.0
7/20/2016 32.3 17.9 24.5 24.6 86.9 22100.4
7/19/2016 28.2 16.3 21.5 0.0 86.5 14719.2
7/18/2016 24.0 12.6 18.8 0.0 74.7 27777.1
7/17/2016 22.6 13.3 18.1 0.0 83.6 24901.9
7/16/2016 24.3 10.9 17.4 1.4 89.1 18118.9
7/15/2016 23.5 9.9 17.4 0.0 72.7 29484.9
7/14/2016 21.1 14.3 17.5 3.2 81.1 27254.6
7/13/2016 18.7 14.3 16.7 15.4 94.7 9435.2
7/12/2016 22.5 16.0 18.6 11.2 87.7 17896.3
7/11/2016 26.3 19.1 22.7 0.6 85.9 22040.7
7/10/2016 24.1 17.0 20.4 0.0 90.6 12721.7
7/9/2016 23.4 12.2 18.5 3.2 86.7 11657.5
7/8/2016 24.4 12.4 18.8 0.0 79.3 29884.7
7/7/2016 20.1 14.2 16.6 0.2 82.6 10938.5
7/6/2016 22.6 13.4 17.6 0.2 80.4 29164.8
7/5/2016 24.4 15.1 19.2 1.6 81.4 18918.8
7/4/2016 28.5 15.3 22.1 0.8 82.7 26230.2
7/3/2016 23.7 15.3 19.4 4.0 85.2 11726.0
7/2/2016 25.1 12.0 19.2 0.0 66.4 28359.0
7/1/2016 22.3 6.5 15.7 0.0 66.3 28875.9
6/30/2016 19.7 10.0 14.8 0.0 67.8 24373.8
6/29/2016 24.6 15.5 20.7 0.0 72.7 26164.6
6/28/2016 26.3 11.6 19.5 0.0 73.2 30283.2
6/27/2016 21.3 9.0 15.5 0.0 72.0 27903.0
6/26/2016 16.5 12.3 14.5 13.4 86.3 7838.1
6/25/2016 25.2 15.4 20.8 13.8 72.3 28214.1
6/24/2016 27.3 13.8 21.4 0.0 69.8 25577.3
6/23/2016 26.6 11.4 19.9 0.0 65.3 31012.1
6/22/2016 21.1 12.2 16.0 0.2 77.2 14974.9
6/21/2016 21.1 12.2 16.8 0.0 66.6 31372.9
6/20/2016 23.3 12.4 17.9 0.0 59.6 31247.0
6/19/2016 27.1 16.2 20.6 30.0 77.2 25083.0
6/18/2016 26.5 13.6 20.2 0.0 57.8 24002.4
6/17/2016 27.9 17.2 21.9 3.8 68.1 24380.8
6/16/2016 23.6 13.8 18.7 0.0 84.2 14830.2
6/15/2016 24.7 15.9 20.0 1.4 76.3 25288.9
6/14/2016 23.9 15.5 19.5 0.0 70.9 17380.3
6/13/2016 27.6 11.2 20.2 0.0 66.0 32332.5
6/12/2016 16.3 11.9 14.1 11.6 80.2 5154.0
6/11/2016 19.8 10.5 15.7 0.0 61.1 25888.8
6/10/2016 30.0 17.8 24.2 4.6 59.9 30532.3
6/9/2016 30.6 13.3 21.7 2.6 64.5 25138.1
6/8/2016 23.6 10.3 16.8 0.6 60.6 14508.6
6/7/2016 19.6 5.0 14.0 0.0 65.3 29034.7
6/6/2016 17.4 11.6 14.5 0.4 76.8 24668.9
6/5/2016 24.8 12.5 18.2 0.6 60.0 27525.8
6/4/2016 23.9 14.1 17.9 0.0 81.0 18340.5
6/3/2016 17.3 13.5 15.2 2.2 84.5 11437.1
6/2/2016 21.7 4.7 14.1 0.0 75.0 31136.7
6/1/2016 9.5 9.5 9.5 0.0 89.0 0.0